Time;durP1;ratioP1;P1;durP2;ratioP2;P2;SDS_P1;SDS_P2;PMS_P1;PMS_P2;Temp;Humidity;BMP_temperature;BMP_pressure;BME280_temperature;BME280_humidity;BME280_pressure;Samples;Min_cycle;Max_cycle;Signal;HPM_P1;HPM_P2
2022/08/08 00:02:39;;;;;;;1.77;1.00;;;24.80;42.30;;;;;;5028004;28;20029;-61
2022/08/08 00:05:18;;;;;;;1.80;0.88;;;24.80;42.40;;;;;;5028972;28;20045;-62
2022/08/08 00:08:08;;;;;;;2.65;1.10;;;24.80;42.40;;;;;;5029375;28;20022;-62
2022/08/08 00:10:47;;;;;;;1.77;1.05;;;24.80;42.50;;;;;;5025976;28;20037;-63
2022/08/08 00:13:37;;;;;;;1.48;0.90;;;24.80;42.50;;;;;;5029302;28;20087;-62
2022/08/08 00:16:21;;;;;;;1.63;0.98;;;24.80;42.60;;;;;;5029392;28;20029;-60
2022/08/08 00:19:08;;;;;;;2.35;1.17;;;24.80;42.60;;;;;;5031440;28;20049;-60
2022/08/08 00:21:41;;;;;;;1.50;0.88;;;24.80;42.70;;;;;;5030166;28;20022;-61
2022/08/08 00:24:36;;;;;;;1.23;0.90;;;24.80;42.70;;;;;;5031790;28;20030;-60
2022/08/08 00:27:07;;;;;;;2.47;1.30;;;24.80;43.40;;;;;;5025381;28;21353;-60
2022/08/08 00:29:56;;;;;;;2.13;1.02;;;24.80;42.80;;;;;;5029206;28;20025;-61
2022/08/08 00:32:41;;;;;;;2.97;1.20;;;24.70;42.80;;;;;;5003403;28;20048;-59
2022/08/08 00:35:25;;;;;;;;;;;24.80;42.90;;;;;;5014267;28;20152;-61
2022/08/08 00:38:03;;;;;;;1.08;0.98;;;24.80;42.90;;;;;;5031735;28;19917;-61
2022/08/08 00:40:28;;;;;;;1.98;1.00;;;24.80;42.90;;;;;;5031750;28;20109;-59
2022/08/08 00:43:06;;;;;;;2.45;1.08;;;24.70;42.90;;;;;;5031907;28;20410;-60
2022/08/08 00:46:22;;;;;;;1.92;0.90;;;24.70;43.00;;;;;;5029741;28;20033;-61
2022/08/08 00:49:13;;;;;;;1.63;0.90;;;24.70;43.00;;;;;;4951431;29;20103;-61
2022/08/08 00:51:38;;;;;;;1.38;0.95;;;24.70;43.00;;;;;;5025733;28;20452;-61
2022/08/08 00:54:25;;;;;;;1.73;0.90;;;24.70;43.10;;;;;;5014228;28;20049;-62
2022/08/08 00:57:10;;;;;;;1.38;0.85;;;24.70;43.10;;;;;;5013753;28;20095;-62
2022/08/08 01:00:01;;;;;;;2.25;0.90;;;24.70;43.10;;;;;;5013635;28;20411;-61
2022/08/08 01:02:40;;;;;;;1.30;0.85;;;24.70;43.20;;;;;;5002527;28;20039;-62
2022/08/08 01:05:19;;;;;;;1.75;1.10;;;24.70;43.20;;;;;;5010452;28;20395;-60
2022/08/08 01:08:03;;;;;;;1.83;1.10;;;24.70;43.20;;;;;;5032338;28;20029;-62
2022/08/08 01:11:18;;;;;;;1.70;0.75;;;24.70;43.30;;;;;;5013651;28;20364;-61
2022/08/08 01:14:18;;;;;;;2.60;1.00;;;24.70;43.30;;;;;;5013429;28;20029;-60
2022/08/08 01:17:23;;;;;;;1.77;1.05;;;24.70;43.30;;;;;;5031874;28;20037;-60
2022/08/08 01:20:26;;;;;;;1.67;0.80;;;24.60;43.30;;;;;;5012622;28;20026;-61
2022/08/08 01:23:24;;;;;;;1.95;0.95;;;24.60;43.30;;;;;;5013980;28;20042;-60
2022/08/08 01:26:11;;;;;;;1.60;1.00;;;24.60;43.40;;;;;;5000935;28;20029;-60
2022/08/08 01:29:15;;;;;;;2.15;1.10;;;24.60;43.40;;;;;;4997538;28;20044;-59
2022/08/08 01:32:01;;;;;;;1.30;0.80;;;24.60;44.10;;;;;;4997803;28;20040;-60
2022/08/08 01:34:52;;;;;;;;;;;24.60;43.50;;;;;;5013313;28;20120;-61
2022/08/08 01:37:25;;;;;;;1.33;1.15;;;24.60;43.60;;;;;;5015224;28;19917;-62
2022/08/08 01:40:22;;;;;;;1.95;1.05;;;24.60;43.60;;;;;;5013938;28;20457;-60
2022/08/08 01:43:19;;;;;;;1.77;1.05;;;24.60;43.60;;;;;;5012443;28;20033;-60
2022/08/08 01:45:56;;;;;;;1.10;0.82;;;24.60;43.70;;;;;;5013728;28;20049;-61
2022/08/08 01:48:56;;;;;;;1.90;1.02;;;24.60;43.70;;;;;;5000845;28;20017;-59
2022/08/08 01:51:53;;;;;;;0.90;0.80;;;24.60;43.80;;;;;;5008211;28;20029;-59
2022/08/08 01:54:34;;;;;;;2.28;1.05;;;24.60;43.80;;;;;;5015041;28;20134;-61
2022/08/08 01:57:34;;;;;;;1.45;1.10;;;24.50;43.80;;;;;;5018072;28;20043;-61
2022/08/08 02:00:25;;;;;;;1.48;1.15;;;24.50;43.80;;;;;;5012071;28;21507;-59
2022/08/08 02:03:37;;;;;;;1.35;0.90;;;24.50;43.80;;;;;;5013502;28;20033;-60
2022/08/08 02:06:24;;;;;;;1.50;0.85;;;24.50;43.80;;;;;;5010782;28;20048;-62
2022/08/08 02:09:06;;;;;;;1.35;0.85;;;24.50;43.90;;;;;;5028644;28;20025;-59
2022/08/08 02:11:48;;;;;;;1.40;0.82;;;24.50;43.90;;;;;;4994557;28;20045;-60
2022/08/08 02:14:33;;;;;;;2.00;1.27;;;24.50;43.90;;;;;;5016556;28;20053;-61
2022/08/08 02:16:58;;;;;;;2.35;1.33;;;24.50;44.00;;;;;;5011772;28;20045;-61
2022/08/08 02:20:09;;;;;;;1.75;1.15;;;24.50;44.00;;;;;;5012146;28;20037;-60
2022/08/08 02:22:56;;;;;;;1.92;1.02;;;24.50;44.00;;;;;;5029905;28;20471;-59
2022/08/08 02:25:50;;;;;;;1.58;1.00;;;24.50;44.10;;;;;;5014940;28;20041;-61
2022/08/08 02:28:26;;;;;;;2.35;1.27;;;24.50;44.10;;;;;;5015447;28;20041;-60
2022/08/08 02:30:58;;;;;;;3.00;1.00;;;24.40;44.10;;;;;;5010302;28;20526;-60
2022/08/08 02:33:55;;;;;;;2.05;0.93;;;24.40;44.10;;;;;;5012741;28;20082;-59
2022/08/08 02:36:29;;;;;;;2.08;1.00;;;24.40;44.10;;;;;;4997810;28;20032;-60
2022/08/08 02:39:17;;;;;;;2.15;0.98;;;24.40;44.20;;;;;;5012965;28;20033;-60
2022/08/08 02:42:03;;;;;;;3.50;1.05;;;24.40;44.20;;;;;;5008655;28;20038;-60
2022/08/08 02:44:35;;;;;;;2.47;1.00;;;24.40;44.20;;;;;;5009264;28;20147;-59
2022/08/08 02:47:31;;;;;;;2.15;0.82;;;24.40;44.20;;;;;;5013350;28;20025;-59
2022/08/08 02:50:16;;;;;;;1.10;0.90;;;24.40;44.30;;;;;;5029261;28;20463;-61
2022/08/08 02:53:10;;;;;;;1.92;0.95;;;24.40;44.30;;;;;;5028410;28;20042;-60
2022/08/08 02:56:00;;;;;;;1.50;0.93;;;24.40;44.40;;;;;;4973958;28;20068;-60
2022/08/08 02:58:43;;;;;;;1.45;0.90;;;24.40;44.30;;;;;;5010879;28;20044;-61
2022/08/08 03:01:28;;;;;;;2.40;1.00;;;24.40;44.30;;;;;;5012413;28;20033;-62
2022/08/08 03:04:12;;;;;;;;;;;24.40;44.30;;;;;;5012769;28;20040;-60
2022/08/08 03:07:00;;;;;;;1.23;0.90;;;24.30;44.30;;;;;;5011536;28;19995;-61
2022/08/08 03:09:44;;;;;;;2.22;1.00;;;24.30;44.30;;;;;;5012288;28;20109;-59
2022/08/08 03:12:16;;;;;;;1.20;0.95;;;24.30;44.30;;;;;;5009147;28;20108;-61
2022/08/08 03:15:38;;;;;;;1.02;0.93;;;24.30;44.40;;;;;;5009442;28;20477;-61
2022/08/08 03:18:09;;;;;;;1.52;0.80;;;24.30;44.40;;;;;;4952439;28;20390;-62
2022/08/08 03:20:52;;;;;;;1.88;0.93;;;24.30;44.40;;;;;;4949141;28;20034;-60
2022/08/08 03:23:29;;;;;;;1.38;1.00;;;24.30;44.40;;;;;;4999715;28;20053;-60
2022/08/08 03:25:56;;;;;;;1.23;0.85;;;24.30;44.50;;;;;;5025412;28;20103;-62
2022/08/08 03:28:50;;;;;;;1.40;1.13;;;24.30;44.50;;;;;;5011484;28;20039;-60
2022/08/08 03:34:08;;;;;;;1.50;1.00;;;24.30;44.50;;;;;;4997300;28;20337;-61
2022/08/08 03:36:42;;;;;;;0.93;0.65;;;24.30;44.50;;;;;;5011778;28;20341;-59
2022/08/08 03:39:12;;;;;;;1.10;0.82;;;24.30;44.60;;;;;;5012983;28;20113;-60
2022/08/08 03:41:39;;;;;;;2.25;1.10;;;24.30;44.60;;;;;;5009902;28;20038;-60
2022/08/08 03:44:06;;;;;;;1.48;0.80;;;24.30;44.60;;;;;;5011920;28;20035;-59
2022/08/08 03:46:47;;;;;;;2.42;1.02;;;24.30;44.50;;;;;;5009371;28;20064;-61
2022/08/08 03:49:21;;;;;;;1.60;0.90;;;24.30;44.50;;;;;;5015067;28;20464;-60
2022/08/08 03:51:52;;;;;;;1.17;0.95;;;24.30;44.60;;;;;;5003601;28;20025;-60
2022/08/08 03:54:22;;;;;;;1.50;1.00;;;24.20;44.50;;;;;;5014775;28;20469;-61
2022/08/08 03:56:49;;;;;;;1.33;1.00;;;24.30;44.60;;;;;;5015501;28;20040;-60
2022/08/08 03:59:15;;;;;;;1.55;0.93;;;24.20;44.50;;;;;;5016427;28;20077;-60
2022/08/08 04:01:42;;;;;;;1.73;1.00;;;24.20;44.50;;;;;;5015885;28;20337;-60
2022/08/08 04:04:09;;;;;;;1.38;0.80;;;24.20;44.50;;;;;;4999923;28;20061;-61
2022/08/08 04:06:38;;;;;;;1.50;0.90;;;24.20;44.50;;;;;;5028509;28;20104;-61
2022/08/08 04:09:07;;;;;;;1.25;0.88;;;24.20;44.50;;;;;;5014781;28;20030;-61
2022/08/08 04:11:38;;;;;;;2.63;0.93;;;24.20;44.50;;;;;;5012305;28;20479;-61
2022/08/08 04:14:04;;;;;;;1.25;1.00;;;24.20;45.20;;;;;;5016522;28;20037;-60
2022/08/08 04:16:31;;;;;;;1.02;0.80;;;24.20;44.60;;;;;;5014205;28;20112;-61
2022/08/08 04:18:56;;;;;;;2.50;0.88;;;24.20;44.60;;;;;;5032679;28;20113;-60
2022/08/08 04:21:22;;;;;;;1.00;0.80;;;24.20;44.60;;;;;;5014651;28;20040;-60
2022/08/08 04:23:49;;;;;;;1.00;0.70;;;24.20;44.60;;;;;;5014334;28;20338;-60
2022/08/08 04:26:15;;;;;;;2.00;0.85;;;24.20;44.60;;;;;;5030488;28;20022;-61
2022/08/08 04:28:42;;;;;;;1.67;0.90;;;24.20;44.60;;;;;;5010999;28;20033;-61
2022/08/08 04:31:09;;;;;;;1.00;0.70;;;24.20;44.60;;;;;;5015185;28;20029;-60
2022/08/08 04:33:35;;;;;;;1.83;0.93;;;24.20;44.50;;;;;;5015307;28;20041;-59
2022/08/08 04:36:01;;;;;;;1.63;0.80;;;24.20;44.60;;;;;;5013692;28;20044;-60
2022/08/08 04:38:27;;;;;;;2.03;1.00;;;24.20;44.60;;;;;;5012101;28;20042;-60
2022/08/08 04:40:56;;;;;;;2.17;0.90;;;24.20;44.60;;;;;;5011513;28;20037;-61
2022/08/08 04:43:23;;;;;;;1.60;1.00;;;24.20;44.60;;;;;;5014530;28;20045;-58
2022/08/08 04:45:52;;;;;;;1.20;0.70;;;24.20;44.60;;;;;;5030769;28;20033;-59
2022/08/08 04:48:18;;;;;;;0.77;0.75;;;24.20;44.60;;;;;;5015003;28;20024;-60
2022/08/08 04:50:45;;;;;;;2.25;0.90;;;24.20;44.50;;;;;;5014178;28;20392;-60
2022/08/08 04:53:13;;;;;;;1.30;0.73;;;24.20;44.50;;;;;;4984802;28;20026;-61
2022/08/08 04:55:40;;;;;;;1.00;0.82;;;24.20;44.50;;;;;;5012072;28;20060;-60
2022/08/08 04:58:06;;;;;;;0.90;0.65;;;24.20;44.50;;;;;;5014568;28;20034;-60
2022/08/08 05:00:33;;;;;;;1.17;0.70;;;24.10;44.50;;;;;;5014485;28;20034;-61
2022/08/08 05:02:59;;;;;;;1.08;0.70;;;24.20;44.50;;;;;;5015292;28;20060;-59
2022/08/08 05:05:25;;;;;;;1.73;0.80;;;24.20;44.50;;;;;;5012694;28;20026;-61
2022/08/08 05:07:51;;;;;;;1.33;0.82;;;24.10;44.50;;;;;;5031900;28;20033;-59
2022/08/08 05:10:16;;;;;;;1.23;0.73;;;24.10;44.50;;;;;;5014385;28;20055;-59
2022/08/08 05:12:42;;;;;;;1.33;0.80;;;24.10;44.50;;;;;;4997223;28;20445;-60
2022/08/08 05:15:09;;;;;;;1.55;0.80;;;24.10;44.50;;;;;;5014048;28;20083;-61
2022/08/08 05:17:36;;;;;;;1.23;0.75;;;24.10;44.50;;;;;;5000853;28;20037;-61
2022/08/08 05:20:02;;;;;;;1.27;1.00;;;24.20;44.60;;;;;;4997798;28;20065;-61
2022/08/08 05:22:35;;;;;;;1.35;0.63;;;24.20;44.60;;;;;;5014245;28;20030;-62
2022/08/08 05:25:02;;;;;;;2.40;1.08;;;24.10;45.20;;;;;;4998579;28;20057;-61
2022/08/08 05:27:29;;;;;;;2.38;1.00;;;24.20;44.60;;;;;;5031692;28;20025;-59
2022/08/08 05:29:54;;;;;;;1.45;0.80;;;24.20;44.60;;;;;;5010728;28;20034;-60
2022/08/08 05:32:23;;;;;;;2.78;0.80;;;24.10;44.60;;;;;;5014203;28;20018;-59
2022/08/08 05:34:51;;;;;;;1.65;0.70;;;24.10;44.60;;;;;;5031669;28;20099;-61
2022/08/08 05:37:29;;;;;;;1.48;0.80;;;24.20;44.70;;;;;;5013984;28;20038;-59
2022/08/08 05:39:56;;;;;;;2.45;1.05;;;24.10;44.70;;;;;;5013351;28;20029;-60
2022/08/08 05:42:41;;;;;;;0.80;0.68;;;24.10;44.70;;;;;;5013510;28;20677;-59
2022/08/08 05:45:12;;;;;;;1.00;0.70;;;24.20;44.80;;;;;;5012654;28;20040;-60
2022/08/08 05:47:39;;;;;;;2.15;0.80;;;24.10;44.80;;;;;;5011631;28;20036;-60
2022/08/08 05:50:07;;;;;;;0.73;0.60;;;24.10;44.90;;;;;;5013482;28;20120;-61
2022/08/08 05:52:35;;;;;;;1.55;0.80;;;24.10;44.90;;;;;;5013448;28;20036;-61
2022/08/08 05:55:08;;;;;;;2.25;1.00;;;24.10;45.00;;;;;;5011612;28;20041;-60
2022/08/08 05:57:36;;;;;;;1.80;0.90;;;24.10;45.00;;;;;;5001362;28;20045;-60
2022/08/08 06:00:08;;;;;;;2.15;0.88;;;24.10;45.00;;;;;;5013411;28;20279;-61
2022/08/08 06:03:09;;;;;;;2.67;0.90;;;24.10;45.10;;;;;;5012686;28;20029;-59
2022/08/08 06:05:47;;;;;;;1.08;0.77;;;24.10;45.10;;;;;;5012739;28;20021;-61
2022/08/08 06:08:14;;;;;;;1.23;0.63;;;24.10;45.20;;;;;;5011160;28;20080;-60
2022/08/08 06:10:41;;;;;;;1.50;0.70;;;24.10;45.20;;;;;;5011554;28;20026;-61
2022/08/08 06:13:09;;;;;;;2.42;0.77;;;24.10;45.30;;;;;;5029316;28;20021;-61
2022/08/08 06:15:37;;;;;;;1.33;0.85;;;24.10;45.40;;;;;;5007962;28;20030;-57
2022/08/08 06:18:04;;;;;;;1.65;0.82;;;24.10;45.40;;;;;;5012734;28;20076;-60
2022/08/08 06:20:30;;;;;;;2.95;1.25;;;24.10;45.50;;;;;;5011608;28;20115;-61
2022/08/08 06:22:56;;;;;;;1.60;0.82;;;24.10;45.50;;;;;;5012414;28;20037;-61
2022/08/08 06:25:23;;;;;;;1.75;0.77;;;24.10;46.20;;;;;;5012119;28;20036;-62
2022/08/08 06:27:55;;;;;;;1.95;0.88;;;24.10;45.60;;;;;;5011447;28;21241;-61
2022/08/08 06:30:22;;;;;;;4.15;0.80;;;24.10;45.60;;;;;;5014886;28;20021;-60
2022/08/08 06:32:55;;;;;;;3.35;0.80;;;24.10;45.70;;;;;;4984975;28;20319;-59
2022/08/08 06:35:24;;;;;;;1.60;0.63;;;24.10;46.40;;;;;;4995067;28;20040;-60
2022/08/08 06:37:58;;;;;;;3.17;0.70;;;24.10;45.90;;;;;;5021580;28;20033;-59
2022/08/08 06:40:33;;;;;;;2.13;0.70;;;24.10;45.90;;;;;;5018427;28;20064;-58
2022/08/08 06:43:03;;;;;;;;;;;24.10;45.80;;;;;;5012851;28;20444;-60
2022/08/08 06:45:37;;;;;;;2.40;0.95;;;24.10;45.80;;;;;;5011538;28;19920;-56
2022/08/08 06:48:04;;;;;;;1.20;0.60;;;24.10;45.80;;;;;;5017505;28;20116;-54
2022/08/08 06:50:35;;;;;;;1.92;0.63;;;24.10;46.40;;;;;;5012641;28;20017;-57
2022/08/08 06:53:04;;;;;;;1.83;0.60;;;24.10;46.50;;;;;;5010943;28;20105;-60
2022/08/08 06:55:35;;;;;;;3.35;0.60;;;24.10;45.90;;;;;;5008360;28;20050;-60
2022/08/08 06:58:01;;;;;;;1.50;0.60;;;24.10;45.90;;;;;;5010651;28;20030;-59
2022/08/08 07:00:36;;;;;;;0.98;0.60;;;24.10;45.80;;;;;;5007317;28;20053;-59
2022/08/08 07:03:08;;;;;;;2.30;0.60;;;24.10;45.70;;;;;;4995488;28;20034;-58
2022/08/08 07:05:43;;;;;;;1.83;0.50;;;24.10;45.70;;;;;;5008598;28;20026;-59
2022/08/08 07:08:27;;;;;;;1.27;0.50;;;24.10;45.70;;;;;;5001147;28;21189;-60
2022/08/08 07:10:57;;;;;;;2.03;0.77;;;24.10;45.60;;;;;;5003484;28;20036;-59
2022/08/08 07:13:51;;;;;;;1.02;0.60;;;24.10;45.60;;;;;;5011776;28;20041;-60
2022/08/08 07:16:31;;;;;;;1.33;0.55;;;24.10;45.60;;;;;;5013274;28;20104;-59
2022/08/08 07:19:08;;;;;;;2.72;0.70;;;24.10;46.20;;;;;;5013334;28;20053;-60
2022/08/08 07:22:01;;;;;;;2.17;0.63;;;24.10;45.60;;;;;;4998787;28;20125;-60
2022/08/08 07:24:41;;;;;;;3.47;0.98;;;24.20;45.60;;;;;;5011014;28;20382;-60
2022/08/08 07:27:10;;;;;;;5.32;1.17;;;24.20;45.60;;;;;;5012011;28;20029;-60
2022/08/08 07:29:38;;;;;;;1.30;0.68;;;24.20;45.50;;;;;;5011375;28;20128;-59
2022/08/08 07:32:07;;;;;;;1.88;0.82;;;24.20;45.40;;;;;;5003222;28;20030;-59
2022/08/08 07:34:33;;;;;;;1.15;0.70;;;24.20;45.40;;;;;;5014120;28;20026;-58
2022/08/08 07:37:05;;;;;;;1.75;0.68;;;24.20;45.30;;;;;;5007790;28;20034;-59
2022/08/08 07:39:31;;;;;;;1.52;0.60;;;24.20;45.30;;;;;;5013508;28;20417;-61
2022/08/08 07:41:58;;;;;;;1.80;0.80;;;24.20;45.20;;;;;;5014083;28;20030;-58
2022/08/08 07:44:24;;;;;;;1.90;0.70;;;24.20;45.20;;;;;;5012238;28;20463;-61
2022/08/08 07:46:51;;;;;;;1.58;0.77;;;24.20;45.20;;;;;;5014433;28;20401;-59
2022/08/08 07:49:19;;;;;;;1.10;0.50;;;24.20;45.20;;;;;;5014327;28;20037;-59
2022/08/08 07:51:45;;;;;;;1.35;0.40;;;24.30;45.20;;;;;;5013700;28;20045;-61
2022/08/08 07:54:33;;;;;;;2.28;0.70;;;24.20;45.10;;;;;;5010389;28;20116;-59
2022/08/08 07:57:23;;;;;;;1.02;0.68;;;24.20;45.10;;;;;;5023351;28;20034;-60
2022/08/08 08:00:03;;;;;;;1.20;0.70;;;24.30;45.10;;;;;;5007812;28;20030;-59
2022/08/08 08:02:43;;;;;;;1.10;0.60;;;24.30;45.20;;;;;;5008680;28;20034;-58
2022/08/08 08:05:23;;;;;;;3.70;0.52;;;24.30;45.20;;;;;;5017239;28;20058;-61
2022/08/08 08:07:54;;;;;;;0.80;0.50;;;24.30;45.10;;;;;;5016682;28;20113;-57
2022/08/08 08:10:26;;;;;;;1.10;0.50;;;24.30;45.10;;;;;;5015869;28;20095;-59
2022/08/08 08:13:19;;;;;;;2.00;0.60;;;24.30;44.90;;;;;;5033589;28;20080;-60
2022/08/08 08:16:04;;;;;;;0.30;0.30;;;24.30;44.80;;;;;;5014131;28;20030;-58
2022/08/08 08:18:45;;;;;;;1.02;0.55;;;24.30;44.70;;;;;;5013935;28;20065;-60
2022/08/08 08:21:11;;;;;;;0.77;0.45;;;24.30;44.70;;;;;;5013545;28;20026;-61
2022/08/08 08:23:38;;;;;;;0.47;0.40;;;24.30;44.70;;;;;;5011615;28;20037;-60
2022/08/08 08:26:05;;;;;;;1.65;0.60;;;24.30;44.60;;;;;;5012236;28;20041;-59
2022/08/08 08:28:31;;;;;;;1.38;0.63;;;24.30;44.60;;;;;;5009729;28;20037;-58
2022/08/08 08:31:03;;;;;;;0.88;0.38;;;24.30;44.50;;;;;;5012012;28;20025;-60
2022/08/08 08:33:31;;;;;;;1.52;0.55;;;24.30;44.50;;;;;;5013678;28;20041;-59
2022/08/08 08:36:00;;;;;;;0.35;0.30;;;24.40;44.40;;;;;;5017405;28;20026;-59
2022/08/08 08:38:27;;;;;;;0.93;0.40;;;24.40;44.30;;;;;;5016693;28;20038;-59
2022/08/08 08:41:01;;;;;;;0.75;0.40;;;24.40;44.30;;;;;;5017291;28;20053;-59
2022/08/08 08:43:29;;;;;;;1.20;0.35;;;24.40;44.20;;;;;;5016384;28;20501;-59
2022/08/08 08:45:59;;;;;;;0.85;0.40;;;24.40;44.20;;;;;;5016879;28;20065;-58
2022/08/08 08:48:26;;;;;;;1.05;0.50;;;24.40;44.10;;;;;;5000605;28;20380;-60
2022/08/08 08:50:54;;;;;;;0.85;0.40;;;24.40;44.00;;;;;;5011060;28;20433;-58
2022/08/08 08:53:21;;;;;;;0.90;0.30;;;24.40;44.00;;;;;;5015143;28;20072;-59
2022/08/08 08:55:55;;;;;;;0.80;0.40;;;24.40;43.90;;;;;;5003258;28;20083;-59
2022/08/08 08:58:41;;;;;;;0.43;0.30;;;24.40;43.80;;;;;;5010166;28;20041;-58
2022/08/08 09:01:15;;;;;;;0.73;0.30;;;24.40;43.70;;;;;;5015499;28;20058;-57
2022/08/08 09:03:47;;;;;;;1.05;0.43;;;24.50;43.60;;;;;;5018336;28;20369;-58
2022/08/08 09:06:20;;;;;;;0.93;0.40;;;24.50;43.50;;;;;;5020243;28;20044;-61
2022/08/08 09:08:55;;;;;;;0.80;0.20;;;24.50;43.50;;;;;;5020224;28;20030;-63
2022/08/08 09:11:21;;;;;;;;;;;24.50;43.50;;;;;;5042060;28;20159;-61
2022/08/08 09:13:48;;;;;;;0.52;0.38;;;24.60;43.50;;;;;;5037401;28;20007;-59
2022/08/08 09:16:14;;;;;;;0.68;0.30;;;24.60;43.50;;;;;;5020095;28;20029;-59
2022/08/08 09:18:43;;;;;;;0.57;0.30;;;24.60;43.40;;;;;;5017214;28;20041;-60
2022/08/08 09:21:10;;;;;;;0.95;0.30;;;24.60;43.40;;;;;;5019715;28;20029;-60
2022/08/08 09:23:37;;;;;;;0.60;0.20;;;24.60;43.30;;;;;;5036375;28;20392;-60
2022/08/08 09:26:11;;;;;;;1.15;0.43;;;24.60;43.20;;;;;;5035812;28;20125;-62
2022/08/08 09:28:38;;;;;;;0.57;0.30;;;24.60;43.20;;;;;;5026333;28;20383;-57
2022/08/08 09:31:23;;;;;;;0.90;0.40;;;24.60;43.20;;;;;;5019624;28;20100;-60
2022/08/08 09:33:51;;;;;;;1.05;0.40;;;24.60;43.10;;;;;;5018726;28;20025;-59
2022/08/08 09:36:21;;;;;;;0.70;0.35;;;24.70;43.10;;;;;;5017748;28;20072;-62
2022/08/08 09:38:59;;;;;;;0.93;0.30;;;24.70;43.10;;;;;;5018124;28;20124;-61
2022/08/08 09:41:42;;;;;;;0.90;0.20;;;24.70;43.10;;;;;;5018282;28;20026;-62
2022/08/08 09:44:34;;;;;;;1.90;0.45;;;24.70;43.10;;;;;;5019292;28;20133;-61
2022/08/08 09:47:06;;;;;;;0.40;0.30;;;24.70;43.10;;;;;;5022464;28;20072;-64
2022/08/08 09:49:35;;;;;;;1.15;0.30;;;24.70;43.10;;;;;;5016281;28;20033;-62
2022/08/08 09:52:02;;;;;;;5.88;1.40;;;24.80;43.10;;;;;;5028626;28;20048;-64
2022/08/08 09:54:42;;;;;;;9.07;1.88;;;24.80;43.10;;;;;;5035438;28;20377;-64
2022/08/08 09:57:10;;;;;;;6.63;1.55;;;24.80;43.10;;;;;;5018993;28;20445;-61
2022/08/08 09:59:40;;;;;;;7.75;1.65;;;24.80;43.10;;;;;;5036117;28;20439;-63
2022/08/08 10:02:18;;;;;;;6.25;1.33;;;24.80;43.10;;;;;;5033106;28;20060;-60
2022/08/08 10:04:44;;;;;;;6.03;1.20;;;24.80;43.10;;;;;;5031810;28;20121;-61
2022/08/08 10:07:14;;;;;;;6.15;1.05;;;24.90;43.10;;;;;;5029097;28;20028;-61
2022/08/08 10:09:42;;;;;;;4.65;1.00;;;24.90;42.90;;;;;;5029158;28;20164;-62
2022/08/08 10:12:09;;;;;;;2.13;0.70;;;24.90;42.80;;;;;;5032374;28;20033;-60
2022/08/08 10:14:36;;;;;;;3.95;1.02;;;24.90;42.70;;;;;;5028865;28;20022;-61
2022/08/08 10:17:05;;;;;;;3.58;0.88;;;25.00;42.60;;;;;;5029550;28;20091;-61
2022/08/08 10:19:38;;;;;;;2.67;0.50;;;25.00;42.60;;;;;;5030015;28;20049;-64
2022/08/08 10:22:06;;;;;;;1.73;0.55;;;25.00;42.50;;;;;;5030004;28;20048;-61
2022/08/08 10:24:34;;;;;;;1.48;0.43;;;25.00;42.40;;;;;;5034355;28;20044;-61
2022/08/08 10:27:03;;;;;;;2.25;0.50;;;25.00;42.30;;;;;;5030237;28;20033;-61
2022/08/08 10:29:58;;;;;;;1.67;0.50;;;25.00;42.20;;;;;;5027841;28;20041;-61
2022/08/08 10:32:34;;;;;;;2.35;0.47;;;25.00;42.00;;;;;;5026782;28;20076;-61
2022/08/08 10:35:27;;;;;;;1.60;0.30;;;25.00;41.90;;;;;;5029045;28;20420;-61
2022/08/08 10:37:54;;;;;;;2.20;0.43;;;25.00;41.70;;;;;;5028367;28;20353;-60
2022/08/08 10:40:21;;;;;;;0.60;0.30;;;25.00;41.70;;;;;;5031748;28;20025;-63
2022/08/08 10:42:49;;;;;;;1.30;0.40;;;25.10;41.70;;;;;;5029619;28;20041;-62
2022/08/08 10:45:15;;;;;;;0.98;0.50;;;25.10;41.70;;;;;;5012968;28;20033;-59
2022/08/08 10:47:42;;;;;;;0.75;0.40;;;25.10;41.60;;;;;;5029590;28;20083;-61
2022/08/08 10:50:08;;;;;;;0.80;0.40;;;25.10;41.60;;;;;;5028798;28;20034;-62
2022/08/08 10:52:38;;;;;;;1.08;0.40;;;25.10;41.70;;;;;;5035384;28;20030;-62
2022/08/08 10:55:18;;;;;;;1.80;0.50;;;25.10;41.70;;;;;;5031449;28;20049;-67
2022/08/08 10:57:48;;;;;;;0.68;0.28;;;25.10;41.70;;;;;;5019446;28;20073;-67
2022/08/08 11:00:23;;;;;;;1.58;0.40;;;25.10;41.80;;;;;;5035225;28;20366;-65
2022/08/08 11:02:50;;;;;;;0.98;0.40;;;25.10;42.00;;;;;;5031527;28;20123;-69
2022/08/08 11:05:16;;;;;;;1.42;0.43;;;25.20;42.10;;;;;;5033788;28;20026;-68
2022/08/08 11:07:54;;;;;;;0.60;0.30;;;25.30;42.20;;;;;;5011860;28;20535;-69
2022/08/08 11:10:23;;;;;;;0.68;0.30;;;25.30;42.20;;;;;;5023178;28;20041;-72
2022/08/08 11:13:00;;;;;;;0.80;0.30;;;25.40;42.20;;;;;;5006799;28;20083;-68
2022/08/08 11:15:28;;;;;;;0.98;0.30;;;25.50;42.10;;;;;;5028843;28;20033;-66
2022/08/08 11:17:56;;;;;;;1.40;0.30;;;25.60;42.00;;;;;;5016996;28;20084;-68
2022/08/08 11:20:23;;;;;;;0.85;0.40;;;25.70;41.90;;;;;;5035305;28;20326;-71
2022/08/08 11:22:52;;;;;;;0.77;0.30;;;25.80;41.90;;;;;;5016956;28;20037;-68
2022/08/08 11:25:25;;;;;;;0.70;0.40;;;25.90;41.80;;;;;;5035239;28;20111;-69
2022/08/08 11:27:53;;;;;;;0.50;0.27;;;26.00;41.60;;;;;;5035236;28;20083;-67
2022/08/08 11:30:22;;;;;;;0.52;0.30;;;26.10;41.50;;;;;;5021838;28;20025;-66
2022/08/08 11:32:54;;;;;;;1.42;0.30;;;26.10;41.30;;;;;;5016820;28;20041;-67
2022/08/08 11:35:22;;;;;;;0.50;0.20;;;26.20;41.30;;;;;;5035146;28;20033;-66
2022/08/08 11:37:47;;;;;;;0.75;0.40;;;26.30;41.20;;;;;;5034403;28;20045;-67
2022/08/08 11:40:14;;;;;;;1.15;0.40;;;26.40;41.10;;;;;;5017696;28;20120;-68
2022/08/08 11:42:41;;;;;;;0.95;0.28;;;26.40;40.90;;;;;;5035153;28;20033;-69
2022/08/08 11:45:09;;;;;;;0.60;0.20;;;26.50;40.90;;;;;;5033284;28;20091;-69
2022/08/08 11:47:36;;;;;;;0.98;0.40;;;26.50;40.70;;;;;;5034539;28;20495;-66
2022/08/08 11:50:05;;;;;;;0.65;0.28;;;26.60;40.70;;;;;;5031879;28;20057;-65
2022/08/08 11:52:33;;;;;;;0.80;0.30;;;26.60;40.60;;;;;;5034588;28;20034;-66
2022/08/08 11:55:00;;;;;;;0.63;0.40;;;26.70;40.50;;;;;;5034668;28;20080;-66
2022/08/08 11:57:28;;;;;;;0.90;0.40;;;26.70;40.40;;;;;;5034673;28;20061;-64
2022/08/08 12:00:00;;;;;;;1.55;0.43;;;26.80;40.40;;;;;;5016928;28;20032;-67
2022/08/08 12:02:29;;;;;;;3.03;0.32;;;26.80;40.30;;;;;;5034451;28;20029;-65
2022/08/08 12:05:06;;;;;;;0.70;0.30;;;26.80;40.20;;;;;;5032815;28;20025;-68
2022/08/08 12:07:54;;;;;;;0.52;0.30;;;26.80;40.10;;;;;;5034444;28;20025;-67
2022/08/08 12:10:23;;;;;;;3.05;0.35;;;26.90;40.10;;;;;;5020172;28;20136;-65
2022/08/08 12:13:03;;;;;;;3.92;0.43;;;26.90;40.10;;;;;;5037000;28;20112;-60
2022/08/08 12:15:47;;;;;;;0.47;0.25;;;27.00;40.10;;;;;;5031083;28;20037;-61
2022/08/08 12:18:21;;;;;;;0.63;0.40;;;27.00;40.00;;;;;;5034688;28;20041;-60
2022/08/08 12:20:54;;;;;;;0.65;0.40;;;27.10;40.00;;;;;;5037947;28;20399;-60
2022/08/08 12:23:33;;;;;;;1.48;0.30;;;27.10;40.00;;;;;;5037647;28;20057;-60
2022/08/08 12:26:11;;;;;;;0.52;0.20;;;27.10;39.90;;;;;;5037730;28;20060;-60
2022/08/08 12:28:37;;;;;;;1.48;0.40;;;27.00;39.80;;;;;;5036992;28;20383;-61
2022/08/08 12:31:08;;;;;;;0.80;0.40;;;27.00;39.80;;;;;;5036330;28;20025;-61
2022/08/08 12:33:35;;;;;;;0.85;0.32;;;26.90;39.70;;;;;;5036566;28;20099;-61
2022/08/08 12:36:11;;;;;;;0.32;0.20;;;26.90;39.70;;;;;;5037650;28;20061;-63
2022/08/08 12:38:50;;;;;;;1.38;0.47;;;26.80;39.70;;;;;;5037206;28;20084;-62
2022/08/08 12:41:21;;;;;;;1.35;0.40;;;26.70;39.70;;;;;;5037732;28;20033;-62
2022/08/08 12:43:49;;;;;;;0.30;0.25;;;26.60;39.70;;;;;;5037627;28;20037;-62
2022/08/08 12:46:16;;;;;;;0.47;0.20;;;26.60;39.70;;;;;;5036145;28;20144;-60
2022/08/08 12:49:00;;;;;;;0.30;0.20;;;26.50;39.70;;;;;;5036726;28;20029;-60
2022/08/08 12:51:37;;;;;;;1.10;0.40;;;26.40;39.60;;;;;;5037442;28;20033;-62
2022/08/08 12:54:03;;;;;;;0.77;0.30;;;26.40;39.60;;;;;;5023985;28;20049;-59
2022/08/08 12:56:37;;;;;;;1.38;0.30;;;26.40;39.60;;;;;;5037280;28;20028;-60
2022/08/08 12:59:17;;;;;;;;;;;26.30;39.50;;;;;;5037238;28;20087;-61
2022/08/08 13:01:59;;;;;;;0.80;0.30;;;26.30;39.60;;;;;;5037275;28;19924;-60
2022/08/08 13:04:31;;;;;;;0.75;0.30;;;26.20;39.60;;;;;;5035118;28;20044;-61
2022/08/08 13:07:07;;;;;;;0.68;0.40;;;26.20;39.60;;;;;;5036895;28;20152;-59
2022/08/08 13:09:41;;;;;;;0.57;0.30;;;26.20;39.60;;;;;;5016815;28;20030;-61
2022/08/08 13:12:22;;;;;;;0.85;0.40;;;26.10;39.60;;;;;;5017233;28;20029;-61
2022/08/08 13:14:50;;;;;;;0.25;0.10;;;26.10;39.50;;;;;;5033180;28;20171;-61
2022/08/08 13:17:22;;;;;;;0.63;0.40;;;26.10;39.50;;;;;;5035273;28;20037;-61
2022/08/08 13:19:48;;;;;;;0.30;0.25;;;26.00;39.50;;;;;;5036364;28;20045;-61
2022/08/08 13:22:17;;;;;;;1.00;0.40;;;26.00;39.50;;;;;;5036752;28;20030;-61
2022/08/08 13:24:44;;;;;;;0.57;0.40;;;26.00;39.50;;;;;;5036401;28;20025;-61
2022/08/08 13:27:13;;;;;;;0.50;0.30;;;26.00;39.50;;;;;;5036590;28;20042;-61
2022/08/08 13:29:53;;;;;;;0.98;0.20;;;26.00;39.50;;;;;;5036366;28;20432;-60
2022/08/08 13:32:20;;;;;;;0.35;0.28;;;26.00;39.60;;;;;;5035409;28;20061;-61